Time;durP1;ratioP1;P1;durP2;ratioP2;P2;SDS_P1;SDS_P2;PMS_P1;PMS_P2;Temp;Humidity;BMP_temperature;BMP_pressure;BME280_temperature;BME280_humidity;BME280_pressure;Samples;Min_cycle;Max_cycle;Signal;HPM_P1;HPM_P2
2023/04/28 00:02:09;;;;;;;;;;;;;;;13.59;100.00;99906.53;5064894;28;20387;-87
2023/04/28 00:04:35;;;;;;;;;;;;;;;13.52;100.00;99901.03;5058209;28;19923;-86
2023/04/28 00:07:00;;;;;;;;;;;;;;;13.45;100.00;99899.97;5078595;28;19932;-87
2023/04/28 00:09:26;;;;;;;;;;;;;;;13.38;100.00;99908.66;5080316;28;19924;-88
2023/04/28 00:11:51;;;;;;;;;;;;;;;13.24;100.00;99912.69;5060899;28;19920;-89
2023/04/28 00:14:16;;;;;;;;;;;;;;;13.21;100.00;99910.34;5064544;28;20385;-89
2023/04/28 00:16:42;;;;;;;;;;;;;;;13.15;100.00;99907.44;5061595;28;19929;-89
2023/04/28 00:19:07;;;;;;;;;;;;;;;13.05;100.00;99912.78;5076969;22;19997;-81
2023/04/28 00:21:34;;;;;;;;;;;;;;;12.92;100.00;99909.66;5063527;28;19928;-81
2023/04/28 00:23:59;;;;;;;;;;;;;;;12.69;100.00;99912.72;5059504;28;19923;-81
2023/04/28 00:26:24;;;;;;;;;;;;;;;12.63;100.00;99913.31;5042967;28;19916;-81
2023/04/28 00:28:50;;;;;;;;;;;;;;;12.39;100.00;99914.81;5025301;28;19924;-80
2023/04/28 00:31:16;;;;;;;;;;;;;;;12.33;100.00;99916.22;5060713;28;19917;-81
2023/04/28 00:33:42;;;;;;;;;;;;;;;12.34;100.00;99920.56;5044136;28;19962;-81
2023/04/28 00:36:08;;;;;;;;;;;;;;;12.24;100.00;99922.41;5041121;28;19939;-80
2023/04/28 00:38:33;;;;;;;;;;;;;;;12.24;100.00;99917.13;5043160;28;19921;-81
2023/04/28 00:40:58;;;;;;;;;;;;;;;12.26;100.00;99915.13;5042681;28;20373;-80
2023/04/28 00:43:24;;;;;;;;;;;;;;;12.30;100.00;99912.09;5041439;28;19972;-81
2023/04/28 00:45:50;;;;;;;;;;;;;;;12.40;100.00;99911.19;5052422;28;19917;-81
2023/04/28 00:48:16;;;;;;;;;;;;;;;12.42;100.00;99915.38;5062903;28;20019;-81
2023/04/28 00:50:42;;;;;;;;;;;;;;;12.38;100.00;99913.97;5058523;28;20078;-81
2023/04/28 00:53:07;;;;;;;;;;;;;;;12.41;100.00;99908.41;5044222;28;19920;-79
2023/04/28 00:55:34;;;;;;;;;;;;;;;12.46;100.00;99906.16;5043351;28;20373;-81
2023/04/28 00:57:59;;;;;;;;;;;;;;;12.51;100.00;99906.56;5058285;28;20451;-79
2023/04/28 01:00:24;;;;;;;;;;;;;;;12.48;100.00;99898.91;5057606;28;20040;-81
2023/04/28 01:02:52;;;;;;;;;;;;;;;12.46;100.00;99906.16;5039958;28;19952;-81
2023/04/28 01:05:18;;;;;;;;;;;;;;;12.44;100.00;99902.81;5060587;28;19927;-82
2023/04/28 01:07:44;;;;;;;;;;;;;;;12.37;100.00;99896.44;5044709;28;19916;-82
2023/04/28 01:10:10;;;;;;;;;;;;;;;12.32;100.00;99898.69;5042139;28;20015;-83
2023/04/28 01:12:35;;;;;;;;;;;;;;;12.31;100.00;99902.34;5044735;28;19917;-82
2023/04/28 01:15:02;;;;;;;;;;;;;;;12.30;100.00;99895.38;5042446;28;20395;-81
2023/04/28 01:17:29;;;;;;;;;;;;;;;12.34;100.00;99891.44;5027101;28;20518;-81
2023/04/28 01:19:55;;;;;;;;;;;;;;;12.34;100.00;99891.44;5043161;28;19920;-80
2023/04/28 01:22:20;;;;;;;;;;;;;;;12.28;100.00;99886.72;5042448;28;20384;-80
2023/04/28 01:24:46;;;;;;;;;;;;;;;12.27;100.00;99890.34;5042894;28;19916;-81
2023/04/28 01:27:12;;;;;;;;;;;;;;;12.29;100.00;99889.25;5044174;28;19993;-81
2023/04/28 01:29:40;;;;;;;;;;;;;;;12.20;100.00;99899.84;5040916;28;19916;-82
2023/04/28 01:32:05;;;;;;;;;;;;;;;12.21;100.00;99906.81;5044694;28;19989;-82
2023/04/28 01:34:32;;;;;;;;;;;;;;;12.15;100.00;99902.09;5040209;28;19916;-81
2023/04/28 01:36:57;;;;;;;;;;;;;;;12.15;100.00;99910.03;5059980;28;19924;-81
2023/04/28 01:39:22;;;;;;;;;;;;;;;12.09;100.00;99910.59;5040521;28;19916;-82
2023/04/28 01:41:48;;;;;;;;;;;;;;;12.06;100.00;99911.75;5061124;28;19916;-82
2023/04/28 01:44:13;;;;;;;;;;;;;;;11.94;100.00;99930.56;5060884;28;19931;-83
2023/04/28 01:46:39;;;;;;;;;;;;;;;11.62;100.00;99931.66;5044560;28;20057;-82
2023/04/28 01:49:04;;;;;;;;;;;;;;;11.55;100.00;99941.13;5059476;28;19924;-81
2023/04/28 01:51:30;;;;;;;;;;;;;;;11.54;100.00;99944.78;5044831;28;20280;-82
2023/04/28 01:53:56;;;;;;;;;;;;;;;11.61;100.00;99945.84;5042335;28;19947;-82
2023/04/28 01:56:22;;;;;;;;;;;;;;;11.55;100.00;99941.13;5053231;28;19916;-82
2023/04/28 01:58:49;;;;;;;;;;;;;;;11.45;100.00;99941.13;5037526;28;19957;-82
2023/04/28 02:01:14;;;;;;;;;;;;;;;11.42;100.00;99945.88;5059713;28;19916;-82
2023/04/28 02:03:40;;;;;;;;;;;;;;;11.40;100.00;99945.19;5041544;28;19921;-82
2023/04/28 02:06:06;;;;;;;;;;;;;;;11.45;100.00;99945.59;5044942;28;19924;-82
2023/04/28 02:08:31;;;;;;;;;;;;;;;11.21;100.00;99950.44;5047162;28;19955;-79
2023/04/28 02:10:57;;;;;;;;;;;;;;;11.24;100.00;99952.81;5044358;28;19922;-79
2023/04/28 02:13:22;;;;;;;;;;;;;;;11.17;100.00;99962.25;5065408;28;20333;-80
2023/04/28 02:15:48;;;;;;;;;;;;;;;11.09;100.00;99963.75;5066445;28;19912;-79
2023/04/28 02:18:13;;;;;;;;;;;;;;;11.02;100.00;99970.56;5074984;28;19950;-79
2023/04/28 02:20:39;;;;;;;;;;;;;;;11.05;100.00;99972.94;5060866;28;19943;-80
2023/04/28 02:23:06;;;;;;;;;;;;;;;11.09;100.00;99969.03;5077553;28;19956;-79
2023/04/28 02:25:32;;;;;;;;;;;;;;;11.05;100.00;99970.28;5066182;28;19920;-80
2023/04/28 02:27:58;;;;;;;;;;;;;;;11.06;100.00;99969.34;5054570;28;19916;-81
2023/04/28 02:30:24;;;;;;;;;;;;;;;11.11;100.00;99970.72;5035025;28;20378;-80
2023/04/28 02:32:50;;;;;;;;;;;;;;;11.22;100.00;99975.88;5054581;28;19938;-80
2023/04/28 02:35:15;;;;;;;;;;;;;;;11.22;100.00;99967.97;5042265;28;19919;-81
2023/04/28 02:37:42;;;;;;;;;;;;;;;11.21;100.00;99979.50;5025296;28;19961;-85
2023/04/28 02:40:09;;;;;;;;;;;;;;;11.16;100.00;99979.06;5043057;28;19923;-83
2023/04/28 02:42:35;;;;;;;;;;;;;;;11.14;100.00;99973.06;5057781;28;20002;-84
2023/04/28 02:45:00;;;;;;;;;;;;;;;11.14;100.00;99978.34;5061834;28;19963;-83
2023/04/28 02:47:25;;;;;;;;;;;;;;;11.18;100.00;99974.50;5063019;28;20313;-83
2023/04/28 02:49:51;;;;;;;;;;;;;;;11.21;100.00;99964.47;5059871;28;20340;-83
2023/04/28 02:52:16;;;;;;;;;;;;;;;11.27;100.00;99963.09;5043392;28;20288;-83
2023/04/28 02:54:42;;;;;;;;;;;;;;;11.21;100.00;99963.63;5065964;28;20196;-82
2023/04/28 02:57:07;;;;;;;;;;;;;;;11.27;100.00;99968.38;5047142;28;19917;-82
2023/04/28 02:59:33;;;;;;;;;;;;;;;11.28;100.00;99964.78;5045261;28;19955;-83
2023/04/28 03:01:58;;;;;;;;;;;;;;;11.26;100.00;99971.97;5045198;28;19928;-83
2023/04/28 03:04:23;;;;;;;;;;;;;;;11.36;100.00;99962.28;5047333;28;19987;-82
2023/04/28 03:06:49;;;;;;;;;;;;;;;11.38;100.00;99955.03;5045439;28;19924;-83
2023/04/28 03:09:15;;;;;;;;;;;;;;;11.38;100.00;99955.03;5044694;28;20039;-83
2023/04/28 03:11:40;;;;;;;;;;;;;;;11.27;100.00;99947.25;5064911;28;19916;-82
2023/04/28 03:14:06;;;;;;;;;;;;;;;11.32;100.00;99948.50;5048617;28;19916;-82
2023/04/28 03:16:32;;;;;;;;;;;;;;;11.27;100.00;99948.09;5064681;28;20011;-82
2023/04/28 03:18:57;;;;;;;;;;;;;;;11.22;100.00;99949.47;5045639;28;20007;-82
2023/04/28 03:21:26;;;;;;;;;;;;;;;10.99;100.00;99948.88;5074250;28;19916;-81
2023/04/28 03:23:52;;;;;;;;;;;;;;;10.86;100.00;99943.84;5066686;28;19908;-83
2023/04/28 03:26:17;;;;;;;;;;;;;;;10.89;100.00;99942.75;5086320;28;19900;-83
2023/04/28 03:28:43;;;;;;;;;;;;;;;10.96;100.00;99944.69;5051735;28;19925;-83
2023/04/28 03:31:09;;;;;;;;;;;;;;;10.89;100.00;99942.75;5042290;28;19917;-81
2023/04/28 03:33:34;;;;;;;;;;;;;;;11.01;100.00;99946.94;5048414;28;19966;-82
2023/04/28 03:36:00;;;;;;;;;;;;;;;11.02;100.00;99938.03;5045537;28;19926;-81
2023/04/28 03:38:25;;;;;;;;;;;;;;;10.95;100.00;99943.03;5047322;28;19999;-81
2023/04/28 03:40:52;;;;;;;;;;;;;;;10.89;100.00;99943.59;5047080;28;19928;-81
2023/04/28 03:43:36;;;;;;;;;;;;;;;10.82;100.00;99939.81;5055511;28;19924;-81
2023/04/28 03:46:24;;;;;;;;;;;;;;;10.76;100.00;99937.69;5059546;28;19916;-80
2023/04/28 03:48:50;;;;;;;;;;;;;;;10.83;100.00;99944.13;5044189;28;19924;-80
2023/04/28 03:51:19;;;;;;;;;;;;;;;10.63;100.00;99943.22;5046975;28;20284;-80
2023/04/28 03:53:44;;;;;;;;;;;;;;;10.41;100.00;99937.28;5062897;28;19995;-80
2023/04/28 03:56:11;;;;;;;;;;;;;;;10.54;100.00;99932.63;5044576;28;20003;-80
2023/04/28 03:58:37;;;;;;;;;;;;;;;10.61;100.00;99931.09;5056663;28;19917;-81
2023/04/28 04:01:04;;;;;;;;;;;;;;;10.65;100.00;99935.16;5044281;28;19916;-79
2023/04/28 04:03:29;;;;;;;;;;;;;;;10.67;100.00;99938.50;5062582;28;19917;-80
2023/04/28 04:05:55;;;;;;;;;;;;;;;10.76;100.00;99945.63;5063646;28;19920;-80
2023/04/28 04:08:20;;;;;;;;;;;;;;;10.80;100.00;99944.38;5044246;28;19920;-81
2023/04/28 04:10:46;;;;;;;;;;;;;;;10.80;100.00;99957.56;5029304;28;20439;-80
2023/04/28 04:13:11;;;;;;;;;;;;;;;10.90;100.00;99955.78;5044070;28;19916;-81
2023/04/28 04:15:36;;;;;;;;;;;;;;;10.85;100.00;99962.44;5029138;28;20368;-79
2023/04/28 04:18:02;;;;;;;;;;;;;;;10.78;100.00;99967.41;5059763;28;20411;-81
2023/04/28 04:20:40;;;;;;;;;;;;;;;10.82;100.00;99968.84;5046271;28;20050;-83
2023/04/28 04:23:05;;;;;;;;;;;;;;;10.83;100.00;99973.16;5044892;28;20270;-83
2023/04/28 04:25:31;;;;;;;;;;;;;;;10.72;100.00;99977.72;5046087;28;19916;-83
2023/04/28 04:27:58;;;;;;;;;;;;;;;10.78;100.00;99975.34;5043558;28;19974;-82
2023/04/28 04:30:24;;;;;;;;;;;;;;;10.73;100.00;99980.19;5062781;28;20304;-82
2023/04/28 04:32:50;;;;;;;;;;;;;;;10.75;100.00;99970.34;5040871;28;19917;-79
2023/04/28 04:35:15;;;;;;;;;;;;;;;10.50;100.00;99989.25;5047194;28;20065;-81
2023/04/28 04:37:40;;;;;;;;;;;;;;;10.31;100.00;99974.16;5044638;28;19917;-78
2023/04/28 04:40:06;;;;;;;;;;;;;;;10.27;100.00;99973.59;5029116;28;19916;-79
2023/04/28 04:42:37;;;;;;;;;;;;;;;10.27;100.00;99978.88;5046015;28;19996;-81
2023/04/28 04:45:10;;;;;;;;;;;;;;;10.31;100.00;99981.28;5040078;28;19917;-81
2023/04/28 04:47:35;;;;;;;;;;;;;;;10.32;100.00;99986.38;5043792;28;19917;-81
2023/04/28 04:50:00;;;;;;;;;;;;;;;10.32;100.00;99985.56;5040951;28;19920;-81
2023/04/28 04:52:27;;;;;;;;;;;;;;;10.30;100.00;99982.22;5045321;28;19916;-81
2023/04/28 04:54:55;;;;;;;;;;;;;;;10.25;100.00;99985.22;5042015;28;19920;-81
2023/04/28 04:57:22;;;;;;;;;;;;;;;10.35;100.00;99985.31;5045491;28;19916;-81
2023/04/28 05:00:06;;;;;;;;;;;;;;;10.39;100.00;99977.00;5045342;28;19979;-83
2023/04/28 05:02:32;;;;;;;;;;;;;;;10.44;100.00;99980.06;5046745;28;19920;-80
2023/04/28 05:04:58;;;;;;;;;;;;;;;10.51;100.00;99991.78;5062251;28;19916;-81
2023/04/28 05:07:25;;;;;;;;;;;;;;;10.62;100.00;99985.56;5061600;28;19917;-82
2023/04/28 05:09:51;;;;;;;;;;;;;;;10.63;100.00;99989.88;5047657;28;19939;-82
2023/04/28 05:12:16;;;;;;;;;;;;;;;10.57;100.00;99979.84;5063180;28;20368;-81
2023/04/28 05:14:42;;;;;;;;;;;;;;;10.60;100.00;99998.09;5043257;28;20739;-82
2023/04/28 05:17:08;;;;;;;;;;;;;;;10.67;100.00;100007.13;5044655;28;19923;-82
2023/04/28 05:19:36;;;;;;;;;;;;;;;10.46;100.00;100008.97;5064329;28;19922;-81
2023/04/28 05:22:02;;;;;;;;;;;;;;;10.36;100.00;100010.72;5041884;28;19998;-82
2023/04/28 05:24:28;;;;;;;;;;;;;;;10.27;100.00;100004.41;5043222;28;20395;-81
2023/04/28 05:26:57;;;;;;;;;;;;;;;10.35;100.00;99993.22;5065746;28;20297;-78
2023/04/28 05:29:22;;;;;;;;;;;;;;;10.44;100.00;100001.19;5043131;28;19917;-79
2023/04/28 05:31:47;;;;;;;;;;;;;;;10.60;100.00;99995.44;5062971;28;19956;-76
2023/04/28 05:34:14;;;;;;;;;;;;;;;10.73;100.00;100005.75;5045626;28;19928;-75
2023/04/28 05:36:40;;;;;;;;;;;;;;;10.81;100.00;100003.28;5042978;28;19981;-79
2023/04/28 05:39:08;;;;;;;;;;;;;;;10.79;100.00;100008.69;5043121;28;19951;-77
2023/04/28 05:41:34;;;;;;;;;;;;;;;10.83;100.00;100007.47;5062934;28;19921;-79
2023/04/28 05:43:59;;;;;;;;;;;;;;;10.83;100.00;99996.91;5053896;28;19927;-77
2023/04/28 05:46:25;;;;;;;;;;;;;;;10.89;100.00;100006.94;5066036;28;20003;-76
2023/04/28 05:48:50;;;;;;;;;;;;;;;10.95;100.00;100005.56;5044174;28;19917;-77
2023/04/28 05:51:16;;;;;;;;;;;;;;;10.97;100.00;100006.25;5045047;28;19920;-79
2023/04/28 05:53:42;;;;;;;;;;;;;;;11.04;100.00;100000.31;5063999;28;19920;-77
2023/04/28 05:56:07;;;;;;;;;;;;;;;11.19;100.00;100007.88;5061548;28;20407;-79
2023/04/28 05:58:33;;;;;;;;;;;;;;;11.26;100.00;100008.97;5044608;28;20340;-78
2023/04/28 06:00:58;;;;;;;;;;;;;;;11.30;100.00;100005.09;5047457;28;20250;-78
2023/04/28 06:03:24;;;;;;;;;;;;;;;11.34;100.00;100011.78;5043265;28;20383;-78
2023/04/28 06:05:50;;;;;;;;;;;;;;;11.44;100.00;100018.75;5045115;28;19917;-78
2023/04/28 06:08:18;;;;;;;;;;;;;;;11.57;100.00;100013.19;5045070;28;19955;-80
2023/04/28 06:10:43;;;;;;;;;;;;;;;11.66;100.00;100022.13;5050316;28;19920;-81
2023/04/28 06:13:09;;;;;;;;;;;;;;;11.71;100.00;100015.44;5041026;28;20333;-78
2023/04/28 06:15:34;;;;;;;;;;;;;;;11.79;100.00;100012.94;5056018;28;20039;-76
2023/04/28 06:18:02;;;;;;;;;;;;;;;11.82;100.00;100019.78;5056804;28;19917;-77
2023/04/28 06:20:27;;;;;;;;;;;;;;;11.98;100.00;100006.81;5057655;28;20532;-78
2023/04/28 06:22:53;;;;;;;;;;;;;;;12.06;100.00;99998.19;5042004;28;19927;-79
2023/04/28 06:25:18;;;;;;;;;;;;;;;11.97;100.00;99999.03;5063683;28;19920;-79
2023/04/28 06:27:45;;;;;;;;;;;;;;;11.93;100.00;99995.84;5048159;28;19917;-77
2023/04/28 06:30:18;;;;;;;;;;;;;;;12.03;100.00;99990.53;5069474;28;19951;-79
2023/04/28 06:32:43;;;;;;;;;;;;;;;12.13;100.00;99973.69;5067175;28;19924;-78
2023/04/28 06:35:09;;;;;;;;;;;;;;;12.11;100.00;99974.78;5068470;28;19962;-78
2023/04/28 06:37:34;;;;;;;;;;;;;;;12.25;100.00;99988.41;5047311;28;19916;-79
2023/04/28 06:40:00;;;;;;;;;;;;;;;12.30;100.00;99986.19;5061350;28;19935;-79
2023/04/28 06:42:26;;;;;;;;;;;;;;;12.37;100.00;99996.19;5045447;28;19982;-79
2023/04/28 06:44:57;;;;;;;;;;;;;;;12.41;100.00;99997.56;5046024;28;20536;-79
2023/04/28 06:47:23;;;;;;;;;;;;;;;12.54;100.00;100004.22;5057759;28;19921;-79
2023/04/28 06:49:49;;;;;;;;;;;;;;;12.56;100.00;100007.53;5062877;28;20020;-79
2023/04/28 06:52:14;;;;;;;;;;;;;;;12.70;100.00;100001.78;5064556;28;19923;-78
2023/04/28 06:54:40;;;;;;;;;;;;;;;12.87;100.00;100009.94;5063459;28;20019;-78
2023/04/28 06:57:07;;;;;;;;;;;;;;;12.98;100.00;100001.78;5045164;28;19932;-79
2023/04/28 06:59:32;;;;;;;;;;;;;;;13.11;100.00;100007.59;5063367;28;19973;-78
2023/04/28 07:01:57;;;;;;;;;;;;;;;13.26;100.00;100011.41;5062981;28;19923;-78
2023/04/28 07:04:23;;;;;;;;;;;;;;;13.35;100.00;100025.63;5064874;28;19977;-77
2023/04/28 07:06:48;;;;;;;;;;;;;;;13.51;100.00;100023.13;5063183;28;19962;-79
2023/04/28 07:09:14;;;;;;;;;;;;;;;13.61;100.00;100013.28;5064212;28;20022;-84
2023/04/28 07:11:40;;;;;;;;;;;;;;;13.65;100.00;100016.47;5062285;28;19916;-81
2023/04/28 07:14:07;;;;;;;;;;;;;;;13.69;100.00;100017.84;5063978;28;19917;-83
2023/04/28 07:16:32;;;;;;;;;;;;;;;13.76;100.00;100019.75;5063434;28;19980;-82
2023/04/28 07:18:58;;;;;;;;;;;;;;;13.80;100.00;100022.91;5061317;28;19997;-79
2023/04/28 07:21:23;;;;;;;;;;;;;;;13.96;100.00;100027.53;5047485;28;20296;-83
2023/04/28 07:23:49;;;;;;;;;;;;;;;14.08;100.00;100026.31;5060652;28;20360;-81
2023/04/28 07:26:15;;;;;;;;;;;;;;;14.21;100.00;100011.66;5065289;28;19916;-81
2023/04/28 07:28:41;;;;;;;;;;;;;;;14.34;100.00;100014.72;5061171;28;19967;-80
2023/04/28 07:31:06;;;;;;;;;;;;;;;14.43;100.00;100022.78;5062017;28;19967;-80
2023/04/28 07:33:31;;;;;;;;;;;;;;;14.55;100.00;100021.53;5063408;28;19916;-82
2023/04/28 07:35:57;;;;;;;;;;;;;;;14.63;100.00;100013.59;5060682;28;19921;-85
2023/04/28 07:38:22;;;;;;;;;;;;;;;14.72;100.00;100007.34;5062290;28;19920;-84
2023/04/28 07:40:48;;;;;;;;;;;;;;;14.79;100.00;100008.38;5059430;28;20332;-84
2023/04/28 07:43:13;;;;;;;;;;;;;;;14.94;100.00;99998.00;5062720;28;19920;-84
2023/04/28 07:45:39;;;;;;;;;;;;;;;14.97;100.00;99995.00;5065404;28;19917;-84
2023/04/28 07:48:04;;;;;;;;;;;;;;;15.07;100.00;100001.88;5063525;28;19921;-84
2023/04/28 07:50:30;;;;;;;;;;;;;;;15.14;100.00;99999.38;5062589;28;19917;-83
2023/04/28 07:52:57;;;;;;;;;;;;;;;15.18;100.00;100005.22;5065863;28;19961;-84
2023/04/28 07:55:23;;;;;;;;;;;;;;;15.16;100.00;100006.22;5044134;28;20238;-84
2023/04/28 07:57:48;;;;;;;;;;;;;;;15.18;100.00;99999.91;5044815;28;19917;-83
2023/04/28 08:00:14;;;;;;;;;;;;;;;15.10;100.00;99998.88;5061631;28;19927;-83
2023/04/28 08:02:39;;;;;;;;;;;;;;;15.30;100.00;100001.28;5059664;28;20116;-84
2023/04/28 08:05:07;;;;;;;;;;;;;;;15.39;100.00;100001.13;5062643;28;19994;-84
2023/04/28 08:07:33;;;;;;;;;;;;;;;15.54;98.11;99993.38;5065605;28;19920;-83
2023/04/28 08:09:58;;;;;;;;;;;;;;;15.63;96.19;99992.38;5062027;28;19917;-83
2023/04/28 08:12:24;;;;;;;;;;;;;;;15.75;95.69;99996.38;5064984;28;19912;-83
2023/04/28 08:14:50;;;;;;;;;;;;;;;15.83;94.24;99998.22;5052348;28;19917;-84
2023/04/28 08:17:16;;;;;;;;;;;;;;;15.96;92.83;99996.72;5069437;28;20284;-84
2023/04/28 08:19:45;;;;;;;;;;;;;;;16.07;92.37;99989.41;5062792;28;19920;-84
2023/04/28 08:22:10;;;;;;;;;;;;;;;16.20;91.90;99979.09;5043040;28;19916;-85
2023/04/28 08:24:35;;;;;;;;;;;;;;;16.28;89.12;99987.88;5061606;28;20442;-84
2023/04/28 08:27:02;;;;;;;;;;;;;;;16.40;89.04;99993.69;5060269;28;19963;-85
2023/04/28 08:29:28;;;;;;;;;;;;;;;16.49;87.59;99984.69;5047344;28;20011;-84
2023/04/28 08:31:53;;;;;;;;;;;;;;;16.58;87.90;99994.31;5058601;28;19926;-84
2023/04/28 08:34:19;;;;;;;;;;;;;;;16.67;87.87;99995.97;5059440;28;20007;-84
2023/04/28 08:36:45;;;;;;;;;;;;;;;16.76;87.78;99991.47;5059723;28;20385;-84
2023/04/28 08:39:10;;;;;;;;;;;;;;;16.83;88.50;99996.94;5059340;28;19924;-84
2023/04/28 08:41:37;;;;;;;;;;;;;;;16.89;88.29;100001.59;5043908;28;19923;-84
2023/04/28 08:44:05;;;;;;;;;;;;;;;16.92;86.98;100002.06;5059878;28;20399;-85
2023/04/28 08:46:32;;;;;;;;;;;;;;;16.94;85.42;100010.72;5041485;28;19916;-84
2023/04/28 08:49:00;;;;;;;;;;;;;;;16.90;86.58;100005.94;5060963;28;19927;-83
2023/04/28 08:51:33;;;;;;;;;;;;;;;16.97;87.59;100001.53;5062512;28;20280;-85
2023/04/28 08:54:03;;;;;;;;;;;;;;;17.01;87.19;100002.88;5059465;28;20079;-82
2023/04/28 08:56:31;;;;;;;;;;;;;;;16.98;84.00;100000.53;5043835;28;19924;-83
2023/04/28 08:58:57;;;;;;;;;;;;;;;16.96;84.06;99991.91;5061732;28;20334;-82
2023/04/28 09:01:23;;;;;;;;;;;;;;;16.95;84.94;99984.91;5063953;28;19974;-84
2023/04/28 09:03:48;;;;;;;;;;;;;;;17.04;85.20;99992.69;5060452;28;19960;-81
2023/04/28 09:06:13;;;;;;;;;;;;;;;17.16;83.67;99993.97;5060340;28;19956;-83
2023/04/28 09:08:39;;;;;;;;;;;;;;;17.29;79.83;99993.41;5062652;28;19962;-79
2023/04/28 09:11:08;;;;;;;;;;;;;;;17.41;77.91;99997.34;5059069;28;19986;-85
2023/04/28 09:13:34;;;;;;;;;;;;;;;17.44;78.86;99996.13;5062033;28;19931;-86
2023/04/28 09:16:00;;;;;;;;;;;;;;;17.48;77.64;99987.63;5061464;28;19927;-86
2023/04/28 09:18:26;;;;;;;;;;;;;;;17.59;77.51;99983.72;5060162;28;19916;-87
2023/04/28 09:20:51;;;;;;;;;;;;;;;17.70;76.71;99986.00;5063404;28;19917;-87
2023/04/28 09:23:17;;;;;;;;;;;;;;;17.84;75.31;99981.72;5062782;28;20340;-85
2023/04/28 09:26:02;;;;;;;;;;;;;;;17.89;74.12;99982.03;5060587;28;20414;-87
2023/04/28 09:28:28;;;;;;;;;;;;;;;18.03;72.82;99975.88;5058137;28;19952;-89
2023/04/28 09:30:53;;;;;;;;;;;;;;;18.15;71.46;99987.78;5061454;28;19939;-87
2023/04/28 09:33:20;;;;;;;;;;;;;;;18.25;69.15;99999.06;5045348;28;20011;-87
2023/04/28 09:35:46;;;;;;;;;;;;;;;18.31;67.90;99990.31;5060734;28;19916;-86
2023/04/28 09:38:11;;;;;;;;;;;;;;;18.31;67.04;99979.63;5062389;28;19917;-87
2023/04/28 09:40:55;;;;;;;;;;;;;;;18.28;66.75;99980.00;5065348;28;19916;-87
2023/04/28 09:43:31;;;;;;;;;;;;;;;18.32;68.13;99973.25;5061074;28;19928;-87
2023/04/28 09:45:57;;;;;;;;;;;;;;;18.46;67.88;99976.97;5053512;28;20364;-87
2023/04/28 09:48:27;;;;;;;;;;;;;;;18.54;66.17;99973.38;5064356;28;19921;-87
2023/04/28 09:50:54;;;;;;;;;;;;;;;18.52;65.56;99972.72;5052215;28;19924;-87
2023/04/28 09:53:21;;;;;;;;;;;;;;;18.47;65.49;99973.28;5062016;28;19920;-87
2023/04/28 09:55:47;;;;;;;;;;;;;;;18.56;66.36;99964.19;5061232;28;19931;-87
2023/04/28 09:58:13;;;;;;;;;;;;;;;18.68;66.34;99961.88;5061501;28;20269;-83
2023/04/28 10:00:39;;;;;;;;;;;;;;;18.81;67.40;99959.38;5062059;28;19928;-83
2023/04/28 10:03:06;;;;;;;;;;;;;;;18.78;66.63;99954.44;5042143;28;19978;-89
2023/04/28 10:05:32;;;;;;;;;;;;;;;18.74;66.59;99956.63;5060059;28;19920;-86
2023/04/28 10:07:59;;;;;;;;;;;;;;;18.78;66.53;99949.09;5039915;28;19943;-87
2023/04/28 10:10:26;;;;;;;;;;;;;;;18.72;66.23;99939.97;5057498;28;19925;-86
2023/04/28 10:12:53;;;;;;;;;;;;;;;18.74;67.12;99934.41;5064958;28;19917;-85
2023/04/28 10:15:19;;;;;;;;;;;;;;;18.82;66.97;99939.66;5045037;28;19916;-85
2023/04/28 10:17:45;;;;;;;;;;;;;;;18.84;66.21;99929.63;5062872;28;20003;-89
2023/04/28 10:20:14;;;;;;;;;;;;;;;18.89;66.48;99929.06;5062776;28;19916;-87
2023/04/28 10:22:44;;;;;;;;;;;;;;;19.01;67.33;99928.38;5028835;28;19921;-88
2023/04/28 10:25:10;;;;;;;;;;;;;;;19.14;67.24;99917.81;5052766;28;19919;-87
2023/04/28 10:27:37;;;;;;;;;;;;;;;19.30;67.25;99910.59;5077663;28;19948;-89
2023/04/28 10:30:28;;;;;;;;;;;;;;;19.41;66.38;99910.09;5081539;28;19964;-88
2023/04/28 10:33:13;;;;;;;;;;;;;;;19.47;66.06;99901.31;5064875;28;19908;-89
2023/04/28 10:35:39;;;;;;;;;;;;;;;19.51;66.26;99891.88;5060903;28;19909;-82
2023/04/28 10:38:08;;;;;;;;;;;;;;;19.46;65.55;99886.28;5021825;28;19934;-83
2023/04/28 10:40:35;;;;;;;;;;;;;;;19.53;65.68;99877.28;5057641;28;20446;-77
2023/04/28 10:43:00;;;;;;;;;;;;;;;19.61;66.29;99879.81;5059641;28;19921;-81
2023/04/28 10:45:44;;;;;;;;;;;;;;;19.73;66.66;99869.44;5057045;28;20005;-82
2023/04/28 10:48:09;;;;;;;;;;;;;;;19.86;66.30;99869.53;5037635;28;19927;-82
2023/04/28 10:50:36;;;;;;;;;;;;;;;19.98;66.73;99867.97;5060824;28;19917;-82
2023/04/28 10:53:02;;;;;;;;;;;;;;;20.03;65.95;99860.16;5063453;28;20368;-83
2023/04/28 10:55:38;;;;;;;;;;;;;;;19.96;64.97;99864.66;5056144;28;19980;-82
2023/04/28 10:58:16;;;;;;;;;;;;;;;19.84;65.78;99860.88;5055712;28;20269;-81
2023/04/28 11:00:43;;;;;;;;;;;;;;;19.88;66.29;99851.41;5057263;28;20003;-81
2023/04/28 11:03:29;;;;;;;;;;;;;;;19.91;66.78;99856.38;5042405;28;19947;-82
2023/04/28 11:06:13;;;;;;;;;;;;;;;19.98;67.08;99851.88;5062229;28;19916;-82
2023/04/28 11:08:40;;;;;;;;;;;;;;;20.05;67.50;99851.94;5070242;28;19905;-83
2023/04/28 11:11:16;;;;;;;;;;;;;;;20.10;66.76;99848.66;5082417;28;19916;-82
2023/04/28 11:13:42;;;;;;;;;;;;;;;20.14;66.41;99844.59;5084747;28;19920;-82
2023/04/28 11:16:07;;;;;;;;;;;;;;;20.21;66.80;99840.06;5067552;28;19923;-83
2023/04/28 11:18:51;;;;;;;;;;;;;;;20.27;66.28;99833.91;5065747;28;19942;-83
2023/04/28 11:21:17;;;;;;;;;;;;;;;20.33;65.62;99838.50;5048078;28;19956;-82
2023/04/28 11:23:43;;;;;;;;;;;;;;;20.36;65.72;99827.41;5063298;28;19927;-83
2023/04/28 11:26:09;;;;;;;;;;;;;;;20.38;65.21;99825.38;5061742;28;20004;-83
2023/04/28 11:28:36;;;;;;;;;;;;;;;20.42;66.09;99821.25;5065599;28;19964;-82
2023/04/28 11:31:23;;;;;;;;;;;;;;;20.56;65.79;99822.94;5062776;28;20131;-82
2023/04/28 11:33:51;;;;;;;;;;;;;;;20.63;64.81;99823.78;5046514;28;20427;-82
2023/04/28 11:36:32;;;;;;;;;;;;;;;20.71;64.87;99814.75;5061909;28;19920;-82
2023/04/28 11:38:58;;;;;;;;;;;;;;;20.78;64.60;99827.16;5058475;28;19928;-83
2023/04/28 11:41:23;;;;;;;;;;;;;;;20.80;62.80;99819.72;5064568;28;19921;-83
2023/04/28 11:43:49;;;;;;;;;;;;;;;20.84;63.10;99818.31;5057584;28;20315;-83
2023/04/28 11:46:18;;;;;;;;;;;;;;;20.82;63.05;99812.31;5060198;28;19923;-83
2023/04/28 11:48:44;;;;;;;;;;;;;;;20.83;63.60;99808.59;5062427;28;19927;-83
2023/04/28 11:51:10;;;;;;;;;;;;;;;20.82;63.19;99800.75;5062299;28;20339;-82
2023/04/28 11:53:42;;;;;;;;;;;;;;;20.93;63.08;99796.66;5063824;28;19917;-82
2023/04/28 11:56:08;;;;;;;;;;;;;;;21.10;62.55;99787.16;5064970;28;20003;-82
2023/04/28 11:58:33;;;;;;;;;;;;;;;21.24;61.12;99789.72;5062813;28;20011;-83
2023/04/28 12:01:05;;;;;;;;;;;;;;;21.36;60.56;99781.88;5058907;28;19917;-83
2023/04/28 12:03:30;;;;;;;;;;;;;;;21.47;60.15;99773.19;5060699;28;20381;-84
2023/04/28 12:05:56;;;;;;;;;;;;;;;21.61;59.35;99774.84;5060861;28;19967;-79
2023/04/28 12:08:28;;;;;;;;;;;;;;;21.74;58.64;99773.13;5044140;28;20368;-80
2023/04/28 12:11:09;;;;;;;;;;;;;;;21.89;57.95;99781.78;5061378;28;19923;-80
2023/04/28 12:13:35;;;;;;;;;;;;;;;21.88;56.80;99769.41;5062270;28;19917;-83
2023/04/28 12:16:02;;;;;;;;;;;;;;;21.99;56.33;99760.72;5064692;28;20011;-83
2023/04/28 12:18:28;;;;;;;;;;;;;;;22.10;55.60;99768.13;5040550;28;19921;-83
2023/04/28 12:20:53;;;;;;;;;;;;;;;22.22;54.89;99761.03;5064479;28;19939;-80
2023/04/28 12:23:29;;;;;;;;;;;;;;;22.29;54.01;99761.84;5056930;28;20292;-76
2023/04/28 12:25:54;;;;;;;;;;;;;;;22.45;53.68;99771.28;5052247;28;19917;-77
2023/04/28 12:28:20;;;;;;;;;;;;;;;22.48;52.41;99761.97;5043600;28;20002;-78
2023/04/28 12:30:45;;;;;;;;;;;;;;;22.51;51.81;99764.22;5048250;28;19939;-83
2023/04/28 12:33:27;;;;;;;;;;;;;;;22.59;52.24;99754.03;5051647;28;20019;-78
2023/04/28 12:35:53;;;;;;;;;;;;;;;22.78;51.89;99755.00;5061117;28;19921;-76
2023/04/28 12:38:19;;;;;;;;;;;;;;;22.95;51.08;99750.75;5064001;28;19952;-76